createdAt,value
2017-11-22T00:02:01.464Z,16.10
2017-11-22T00:04:39.857Z,13.90
2017-11-22T00:07:19.670Z,14.13
2017-11-22T00:10:00.094Z,16.20
2017-11-22T00:12:42.141Z,14.50
2017-11-22T00:15:25.060Z,13.07
2017-11-22T00:18:05.771Z,14.15
2017-11-22T00:20:40.081Z,14.10
2017-11-22T00:23:22.517Z,16.55
2017-11-22T00:25:59.552Z,14.57
2017-11-22T00:28:38.969Z,13.80
2017-11-22T00:31:14.611Z,13.93
2017-11-22T00:33:54.062Z,14.73
2017-11-22T00:36:33.882Z,14.23
2017-11-22T00:39:08.027Z,15.00
2017-11-22T00:41:41.908Z,14.93
2017-11-22T00:44:20.621Z,13.48
2017-11-22T00:47:01.656Z,14.25
2017-11-22T00:49:43.343Z,13.00
2017-11-22T00:52:16.385Z,13.65
2017-11-22T00:54:56.485Z,12.98
2017-11-22T00:57:42.333Z,14.07
2017-11-22T01:00:22.300Z,12.65
2017-11-22T01:03:02.097Z,13.52
2017-11-22T01:05:42.408Z,14.02
2017-11-22T01:08:21.493Z,12.77
2017-11-22T01:10:56.261Z,13.55
2017-11-22T01:13:36.164Z,12.73
2017-11-22T01:16:16.176Z,15.70
2017-11-22T01:18:54.838Z,12.98
2017-11-22T01:21:35.934Z,12.63
2017-11-22T01:24:14.329Z,12.07
2017-11-22T01:26:53.375Z,12.35
2017-11-22T01:29:33.939Z,13.75
2017-11-22T01:32:14.197Z,12.18
2017-11-22T01:34:44.256Z,10.93
2017-11-22T01:37:24.117Z,10.48
2017-11-22T01:40:03.123Z,11.65
2017-11-22T01:42:43.725Z,11.00
2017-11-22T01:45:23.982Z,11.60
2017-11-22T01:48:02.702Z,12.20
2017-11-22T01:50:40.929Z,12.05
2017-11-22T01:53:15.486Z,11.77
2017-11-22T01:55:55.686Z,13.15
2017-11-22T01:58:35.278Z,10.80
2017-11-22T02:01:12.521Z,12.60
2017-11-22T02:03:52.833Z,12.05
2017-11-22T02:06:32.304Z,12.77
2017-11-22T02:09:11.549Z,11.23
2017-11-22T02:11:51.350Z,11.00
2017-11-22T02:14:30.578Z,10.80
2017-11-22T02:17:04.290Z,10.50
2017-11-22T02:19:43.005Z,10.82
2017-11-22T02:22:21.628Z,11.60
2017-11-22T02:24:59.887Z,12.25
2017-11-22T02:27:39.857Z,11.35
2017-11-22T02:30:20.035Z,11.10
2017-11-22T02:32:59.842Z,10.90
2017-11-22T02:35:33.080Z,11.45
2017-11-22T02:38:11.820Z,10.73
2017-11-22T02:40:49.972Z,12.05
2017-11-22T02:43:28.596Z,10.77
2017-11-22T02:46:08.686Z,9.93
2017-11-22T02:48:47.961Z,12.25
2017-11-22T02:51:25.895Z,11.52
2017-11-22T02:54:05.235Z,11.27
2017-11-22T02:56:44.559Z,11.50
2017-11-22T02:59:25.425Z,11.52
2017-11-22T03:01:59.062Z,11.25
2017-11-22T03:04:28.011Z,12.57
2017-11-22T03:07:06.493Z,10.82
2017-11-22T03:09:40.327Z,12.98
2017-11-22T03:12:21.949Z,12.20
2017-11-22T03:15:01.233Z,11.15
2017-11-22T03:17:40.050Z,11.63
2017-11-22T03:20:12.273Z,11.48
2017-11-22T03:22:52.077Z,11.80
2017-11-22T03:25:30.691Z,10.77
2017-11-22T03:28:00.247Z,12.27
2017-11-22T03:30:39.199Z,13.02
2017-11-22T03:33:17.859Z,11.75
2017-11-22T03:35:55.822Z,11.00
2017-11-22T03:38:28.820Z,11.75
2017-11-22T03:41:08.266Z,11.15
2017-11-22T03:43:46.302Z,11.90
2017-11-22T03:46:19.798Z,11.20
2017-11-22T03:49:03.486Z,11.52
2017-11-22T03:51:37.990Z,11.70
2017-11-22T03:54:19.155Z,11.32
2017-11-22T03:56:59.181Z,11.70
2017-11-22T03:59:38.131Z,12.15
2017-11-22T04:02:16.460Z,12.75
2017-11-22T04:04:50.564Z,11.12
2017-11-22T04:07:34.176Z,11.48
2017-11-22T04:10:12.959Z,13.30
2017-11-22T04:12:45.959Z,11.82
2017-11-22T04:15:26.939Z,11.60
2017-11-22T04:18:08.670Z,11.73
2017-11-22T04:20:47.866Z,11.50
2017-11-22T04:23:25.619Z,11.75
2017-11-22T04:26:06.606Z,13.25
2017-11-22T04:28:44.290Z,12.45
2017-11-22T04:31:24.542Z,12.93
2017-11-22T04:34:02.491Z,12.60
2017-11-22T04:36:41.180Z,13.00
2017-11-22T04:39:21.128Z,11.98
2017-11-22T04:42:02.116Z,13.80
2017-11-22T04:44:41.148Z,13.20
2017-11-22T04:47:15.861Z,13.00
2017-11-22T04:49:54.410Z,13.15
2017-11-22T04:52:33.104Z,12.10
2017-11-22T04:55:11.056Z,13.20
2017-11-22T04:57:49.222Z,13.90
2017-11-22T05:00:22.990Z,13.70
2017-11-22T05:02:58.231Z,12.98
2017-11-22T05:05:39.073Z,12.90
2017-11-22T05:08:19.534Z,13.43
2017-11-22T05:11:01.467Z,13.02
2017-11-22T05:13:39.815Z,14.77
2017-11-22T05:16:18.873Z,13.70
2017-11-22T05:18:59.273Z,13.80
2017-11-22T05:21:37.011Z,15.23
2017-11-22T05:24:15.591Z,15.32
2017-11-22T05:26:56.260Z,15.55
2017-11-22T05:29:33.999Z,15.07
2017-11-22T05:32:12.931Z,15.15
2017-11-22T05:34:51.109Z,16.58
2017-11-22T05:37:28.779Z,16.05
2017-11-22T05:40:03.874Z,16.27
2017-11-22T05:42:42.896Z,16.60
2017-11-22T05:45:18.056Z,16.73
2017-11-22T05:47:57.732Z,16.05
2017-11-22T05:50:31.439Z,18.62
2017-11-22T05:53:09.924Z,16.75
2017-11-22T05:55:50.757Z,17.87
2017-11-22T05:58:30.162Z,17.62
2017-11-22T06:01:11.343Z,17.02
2017-11-22T06:03:48.667Z,16.87
2017-11-22T06:06:23.368Z,16.35
2017-11-22T06:08:52.928Z,18.75
2017-11-22T06:11:32.678Z,18.40
2017-11-22T06:14:07.160Z,16.37
2017-11-22T06:16:46.654Z,17.50
2017-11-22T06:19:24.496Z,18.27
2017-11-22T06:22:02.250Z,18.15
2017-11-22T06:24:40.667Z,19.60
2017-11-22T06:27:17.928Z,19.27
2017-11-22T06:29:59.019Z,18.50
2017-11-22T06:32:38.007Z,18.90
2017-11-22T06:35:17.657Z,17.70
2017-11-22T06:37:53.805Z,19.40
2017-11-22T06:40:28.164Z,18.90
2017-11-22T06:43:06.713Z,18.30
2017-11-22T06:45:46.071Z,18.70
2017-11-22T06:48:26.566Z,19.17
2017-11-22T06:51:05.643Z,18.58
2017-11-22T06:53:44.417Z,19.30
2017-11-22T06:56:22.381Z,18.48
2017-11-22T06:59:02.493Z,19.00
2017-11-22T07:01:47.453Z,19.77
2017-11-22T07:04:20.643Z,19.02
2017-11-22T07:06:58.673Z,17.67
2017-11-22T07:09:38.474Z,18.77
2017-11-22T07:12:19.663Z,19.52
2017-11-22T07:14:57.704Z,18.17
2017-11-22T07:17:37.130Z,19.83
2017-11-22T07:20:10.616Z,18.30
2017-11-22T07:22:49.831Z,18.55
2017-11-22T07:25:29.438Z,19.98
2017-11-22T07:28:08.097Z,19.65
2017-11-22T07:30:47.728Z,20.00
2017-11-22T07:33:25.850Z,18.45
2017-11-22T07:36:04.108Z,19.50
2017-11-22T07:38:41.249Z,17.90
2017-11-22T07:41:20.575Z,19.75
2017-11-22T07:44:01.830Z,18.98
2017-11-22T07:46:36.300Z,19.80
2017-11-22T07:49:16.366Z,20.42
2017-11-22T07:51:58.323Z,20.52
2017-11-22T07:54:38.875Z,21.10
2017-11-22T07:57:14.149Z,18.42
2017-11-22T07:59:52.751Z,20.23
2017-11-22T08:02:32.978Z,20.40
2017-11-22T08:05:12.557Z,20.33
2017-11-22T08:07:47.221Z,18.37
2017-11-22T08:10:25.615Z,18.98
2017-11-22T08:12:59.001Z,19.58
2017-11-22T08:15:38.291Z,19.10
2017-11-22T08:18:13.248Z,19.05
2017-11-22T08:20:58.090Z,19.35
2017-11-22T08:23:38.133Z,19.95
2017-11-22T08:26:08.870Z,18.85
2017-11-22T08:28:47.934Z,19.02
2017-11-22T08:31:28.330Z,19.58
2017-11-22T08:34:03.680Z,19.35
2017-11-22T08:36:41.781Z,19.45
2017-11-22T08:39:21.298Z,20.12
2017-11-22T08:41:50.618Z,18.83
2017-11-22T08:44:34.667Z,19.05
2017-11-22T08:47:15.627Z,20.15
2017-11-22T08:49:55.111Z,20.02
2017-11-22T08:52:34.329Z,20.00
2017-11-22T08:55:07.478Z,23.15
2017-11-22T08:57:49.731Z,19.45
2017-11-22T09:00:29.568Z,19.98
2017-11-22T09:03:09.274Z,20.90
2017-11-22T09:05:54.486Z,19.95
2017-11-22T09:08:32.460Z,19.77
2017-11-22T09:11:06.081Z,19.52
2017-11-22T09:13:40.955Z,19.00
2017-11-22T09:16:14.451Z,20.33
2017-11-22T09:18:50.790Z,21.17
2017-11-22T09:21:24.533Z,19.75
2017-11-22T09:23:58.703Z,18.30
2017-11-22T09:26:38.504Z,16.80
2017-11-22T09:29:17.315Z,19.23
2017-11-22T09:32:00.937Z,18.27
2017-11-22T09:34:38.213Z,17.80
2017-11-22T09:37:18.597Z,18.23
2017-11-22T09:39:52.942Z,18.37
2017-11-22T09:42:33.357Z,17.25
2017-11-22T09:45:12.834Z,17.00
2017-11-22T09:47:51.936Z,19.10
2017-11-22T09:50:26.187Z,17.90
2017-11-22T09:53:01.926Z,17.77
2017-11-22T09:55:36.367Z,17.55
2017-11-22T09:58:14.491Z,18.98
2017-11-22T10:00:53.846Z,17.25
2017-11-22T10:03:35.426Z,18.77
2017-11-22T10:06:13.540Z,16.50
2017-11-22T10:08:47.751Z,17.45
2017-11-22T10:11:22.787Z,16.37
2017-11-22T10:14:01.333Z,17.77
2017-11-22T10:16:35.971Z,17.25
2017-11-22T10:19:11.466Z,15.73
2017-11-22T10:21:45.850Z,14.55
2017-11-22T10:24:27.271Z,15.55
2017-11-22T10:27:10.776Z,17.30
2017-11-22T10:29:50.562Z,16.52
2017-11-22T10:32:29.501Z,14.23
2017-11-22T10:35:09.200Z,14.60
2017-11-22T10:37:52.363Z,14.38
2017-11-22T10:40:35.140Z,13.62
2017-11-22T10:43:11.634Z,14.32
2017-11-22T10:45:41.244Z,14.18
2017-11-22T10:48:19.888Z,14.00
2017-11-22T10:50:54.237Z,15.32
2017-11-22T10:53:28.544Z,14.93
2017-11-22T10:56:10.807Z,13.95
2017-11-22T10:58:44.834Z,14.65
2017-11-22T11:01:19.107Z,13.80
2017-11-22T11:03:54.422Z,13.50
2017-11-22T11:06:32.232Z,13.00
2017-11-22T11:09:07.720Z,14.30
2017-11-22T11:11:41.642Z,13.00
2017-11-22T11:14:15.540Z,14.90
2017-11-22T11:16:54.487Z,12.50
2017-11-22T11:19:27.748Z,12.70
2017-11-22T11:22:05.368Z,12.20
2017-11-22T11:24:43.387Z,12.88
2017-11-22T11:27:18.585Z,10.85
2017-11-22T11:29:51.892Z,11.70
2017-11-22T11:32:25.987Z,12.23
2017-11-22T11:35:03.633Z,12.23
2017-11-22T11:37:45.411Z,11.75
2017-11-22T11:40:18.747Z,10.73
2017-11-22T11:42:57.181Z,11.20
2017-11-22T11:45:37.969Z,11.70
2017-11-22T11:48:18.524Z,11.07
2017-11-22T11:50:54.744Z,10.85
2017-11-22T11:53:29.950Z,12.00
2017-11-22T11:56:11.965Z,11.10
2017-11-22T11:58:54.602Z,10.43
2017-11-22T12:01:33.657Z,11.47
2017-11-22T12:07:10.888Z,11.07
2017-11-22T12:09:50.809Z,10.17
2017-11-22T12:12:30.388Z,11.33
2017-11-22T12:15:09.967Z,10.17
2017-11-22T12:17:48.274Z,11.37
2017-11-22T12:20:24.046Z,10.13
2017-11-22T12:23:08.596Z,11.03
2017-11-22T12:25:48.667Z,11.77
2017-11-22T12:28:29.133Z,11.23
2017-11-22T12:31:12.564Z,10.67
2017-11-22T12:33:46.827Z,10.23
2017-11-22T12:36:22.736Z,9.23
2017-11-22T12:39:02.585Z,10.87
2017-11-22T12:41:44.131Z,9.10
2017-11-22T12:44:27.803Z,9.90
2017-11-22T12:47:07.270Z,9.90
2017-11-22T12:49:42.210Z,10.00
2017-11-22T12:52:21.043Z,9.83
2017-11-22T12:55:01.416Z,9.77
2017-11-22T12:57:59.901Z,9.70
2017-11-22T13:00:49.251Z,9.67
2017-11-22T13:03:22.885Z,9.50
2017-11-22T13:06:00.310Z,8.40
2017-11-22T13:08:34.013Z,9.23
2017-11-22T13:11:22.226Z,8.50
2017-11-22T13:13:57.702Z,8.73
2017-11-22T13:16:33.337Z,8.70
2017-11-22T13:19:08.368Z,10.10
2017-11-22T13:21:48.147Z,8.77
2017-11-22T13:24:26.947Z,8.53
2017-11-22T13:27:04.984Z,8.70
2017-11-22T13:29:42.705Z,9.23
2017-11-22T13:32:24.430Z,9.20
2017-11-22T13:35:05.815Z,8.50
2017-11-22T13:37:40.005Z,9.73
2017-11-22T13:40:19.876Z,8.97
2017-11-22T13:43:00.225Z,8.17
2017-11-22T13:45:41.767Z,9.00
2017-11-22T13:48:21.620Z,9.63
2017-11-22T13:51:01.054Z,9.20
2017-11-22T13:53:35.114Z,8.47
2017-11-22T13:56:11.334Z,8.30
2017-11-22T13:58:46.530Z,7.27
2017-11-22T14:01:23.327Z,8.60
2017-11-22T14:03:58.169Z,8.80
2017-11-22T14:06:40.584Z,7.82
2017-11-22T14:09:18.229Z,9.32
2017-11-22T14:11:57.562Z,8.43
2017-11-22T14:14:31.327Z,7.80
2017-11-22T14:17:05.446Z,7.97
2017-11-22T14:19:39.407Z,8.40
2017-11-22T14:22:15.545Z,7.60
2017-11-22T14:24:50.807Z,7.03
2017-11-22T14:27:30.530Z,8.27
2017-11-22T14:30:09.585Z,7.17
2017-11-22T14:32:44.816Z,7.30
2017-11-22T14:35:24.320Z,7.90
2017-11-22T14:37:59.367Z,6.87
2017-11-22T14:40:39.583Z,7.27
2017-11-22T14:43:19.054Z,7.87
2017-11-22T14:45:58.686Z,6.70
2017-11-22T14:48:38.152Z,7.55
2017-11-22T14:51:18.471Z,6.80
2017-11-22T14:53:53.544Z,7.72
2017-11-22T14:56:32.122Z,6.78
2017-11-22T14:59:15.840Z,8.00
2017-11-22T15:01:49.962Z,7.70
2017-11-22T15:04:25.385Z,7.30
2017-11-22T15:07:00.520Z,8.25
2017-11-22T15:09:35.765Z,7.80
2017-11-22T15:12:09.424Z,8.20
2017-11-22T15:14:49.166Z,8.88
2017-11-22T15:17:28.712Z,8.48
2017-11-22T15:20:09.291Z,8.15
2017-11-22T15:22:49.585Z,9.70
2017-11-22T15:25:32.227Z,9.80
2017-11-22T15:28:14.155Z,10.43
2017-11-22T15:30:52.289Z,9.82
2017-11-22T15:33:27.128Z,9.15
2017-11-22T15:36:05.614Z,8.45
2017-11-22T15:38:47.191Z,9.35
2017-11-22T15:41:28.881Z,8.77
2017-11-22T15:44:11.577Z,9.20
2017-11-22T15:46:50.233Z,8.88
2017-11-22T15:49:30.104Z,9.85
2017-11-22T15:52:09.996Z,9.73
2017-11-22T15:54:45.792Z,8.70
2017-11-22T15:57:24.503Z,8.73
2017-11-22T16:00:02.808Z,9.32
2017-11-22T16:02:43.711Z,9.63
2017-11-22T16:05:16.919Z,8.77
2017-11-22T16:07:59.769Z,8.73
2017-11-22T16:10:37.612Z,8.60
2017-11-22T16:13:17.882Z,9.88
2017-11-22T16:15:53.199Z,9.52
2017-11-22T16:18:35.439Z,9.23
2017-11-22T16:21:14.821Z,10.75
2017-11-22T16:23:55.782Z,9.80
2017-11-22T16:26:37.370Z,9.60
2017-11-22T16:29:17.490Z,9.70
2017-11-22T16:31:54.836Z,9.88
2017-11-22T16:34:28.492Z,10.00
2017-11-22T16:37:07.910Z,9.15
2017-11-22T16:39:46.083Z,10.27
2017-11-22T16:42:24.882Z,10.68
2017-11-22T16:44:59.400Z,10.70
2017-11-22T16:47:38.783Z,10.73
2017-11-22T16:50:18.036Z,10.63
2017-11-22T16:52:50.723Z,10.43
2017-11-22T16:55:29.557Z,11.50
2017-11-22T16:58:03.221Z,10.18
2017-11-22T17:00:34.363Z,11.02
2017-11-22T17:03:13.088Z,10.13
2017-11-22T17:05:50.953Z,12.00
2017-11-22T17:08:29.881Z,11.43
2017-11-22T17:11:03.267Z,12.40
2017-11-22T17:13:36.121Z,11.65
2017-11-22T17:16:14.535Z,12.45
2017-11-22T17:18:51.931Z,12.10
2017-11-22T17:21:30.820Z,12.52
2017-11-22T17:24:11.743Z,11.85
2017-11-22T17:26:56.970Z,11.63
2017-11-22T17:29:36.097Z,11.98
2017-11-22T17:32:14.095Z,12.98
2017-11-22T17:34:43.768Z,11.05
2017-11-22T17:37:26.162Z,10.55
2017-11-22T17:40:08.510Z,11.20
2017-11-22T17:42:45.431Z,11.20
2017-11-22T17:45:22.536Z,10.98
2017-11-22T17:48:01.907Z,10.80
2017-11-22T17:50:34.620Z,9.85
2017-11-22T17:53:15.532Z,9.68
2017-11-22T17:55:53.403Z,9.35
2017-11-22T17:58:28.316Z,10.32
2017-11-22T18:01:01.388Z,9.00
2017-11-22T18:03:35.008Z,8.18
2017-11-22T18:06:07.647Z,9.30
2017-11-22T18:08:44.836Z,8.88
2017-11-22T18:11:21.840Z,10.05
2017-11-22T18:14:02.011Z,9.57
2017-11-22T18:16:39.500Z,9.65
2017-11-22T18:19:17.203Z,8.15
2017-11-22T18:21:57.041Z,8.55
2017-11-22T18:24:30.521Z,9.95
2017-11-22T18:27:04.097Z,9.88
2017-11-22T18:29:37.459Z,9.25
2017-11-22T18:32:19.542Z,10.10
2017-11-22T18:34:58.510Z,10.25
2017-11-22T18:37:37.508Z,9.98
2017-11-22T18:40:17.240Z,8.27
2017-11-22T18:42:50.181Z,9.43
2017-11-22T18:45:34.583Z,9.32
2017-11-22T18:48:12.984Z,9.50
2017-11-22T18:50:48.412Z,9.63
2017-11-22T18:53:21.828Z,9.95
2017-11-22T18:55:55.306Z,9.70
2017-11-22T18:58:32.560Z,9.70
2017-11-22T19:01:10.387Z,9.90
2017-11-22T19:03:43.637Z,9.07
2017-11-22T19:06:23.864Z,9.43
2017-11-22T19:09:01.274Z,9.15
2017-11-22T19:11:44.599Z,9.57
2017-11-22T19:14:20.081Z,9.55
2017-11-22T19:17:02.904Z,9.43
2017-11-22T19:19:42.794Z,9.20
2017-11-22T19:22:21.057Z,9.30
2017-11-22T19:25:00.328Z,8.48
2017-11-22T19:27:35.991Z,9.93
2017-11-22T19:30:15.032Z,9.63
2017-11-22T19:32:56.582Z,9.48
2017-11-22T19:35:33.804Z,8.45
2017-11-22T19:38:06.725Z,9.18
2017-11-22T19:40:43.762Z,9.48
2017-11-22T19:43:15.501Z,9.57
2017-11-22T19:45:53.107Z,10.57
2017-11-22T19:48:30.123Z,10.18
2017-11-22T19:51:03.071Z,10.13
2017-11-22T19:53:35.997Z,10.48
2017-11-22T19:56:10.182Z,10.23
2017-11-22T19:58:49.446Z,10.70
2017-11-22T20:01:23.886Z,10.23
2017-11-22T20:03:54.021Z,10.70
2017-11-22T20:06:31.512Z,9.85
2017-11-22T20:09:11.664Z,11.80
2017-11-22T20:11:49.855Z,11.10
2017-11-22T20:14:28.818Z,9.82
2017-11-22T20:17:07.502Z,9.40
2017-11-22T20:19:40.994Z,10.52
2017-11-22T20:22:18.559Z,9.27
2017-11-22T20:24:51.904Z,9.75
2017-11-22T20:27:30.696Z,10.02
2017-11-22T20:30:09.446Z,9.15
2017-11-22T20:32:48.175Z,10.48
2017-11-22T20:35:28.096Z,10.10
2017-11-22T20:38:05.231Z,11.80
2017-11-22T20:40:43.998Z,10.73
2017-11-22T20:43:22.872Z,11.30
2017-11-22T20:46:01.489Z,10.43
2017-11-22T20:48:39.433Z,12.35
2017-11-22T20:51:22.312Z,10.48
2017-11-22T20:53:51.309Z,10.57
2017-11-22T20:56:23.335Z,10.82
2017-11-22T20:59:03.794Z,9.85
2017-11-22T21:01:41.500Z,10.93
2017-11-22T21:04:19.950Z,9.43
2017-11-22T21:07:00.520Z,9.93
2017-11-22T21:09:39.363Z,10.70
2017-11-22T21:12:18.914Z,10.73
2017-11-22T21:14:52.568Z,11.10
2017-11-22T21:17:30.508Z,9.80
2017-11-22T21:20:01.049Z,11.73
2017-11-22T21:22:40.324Z,10.48
2017-11-22T21:25:19.568Z,9.27
2017-11-22T21:27:52.059Z,11.98
2017-11-22T21:30:26.348Z,11.27
2017-11-22T21:33:00.564Z,11.02
2017-11-22T21:35:37.233Z,10.93
2017-11-22T21:38:15.867Z,12.57
2017-11-22T21:40:54.387Z,10.98
2017-11-22T21:43:26.247Z,10.95
2017-11-22T21:46:05.077Z,10.52
2017-11-22T21:48:43.459Z,10.20
2017-11-22T21:51:15.552Z,10.05
2017-11-22T21:53:55.996Z,11.05
2017-11-22T21:56:34.852Z,10.20
2017-11-22T21:59:07.439Z,10.88
2017-11-22T22:01:41.141Z,9.80
2017-11-22T22:04:18.810Z,11.45
2017-11-22T22:06:56.574Z,11.35
2017-11-22T22:09:33.977Z,9.82
2017-11-22T22:12:12.478Z,11.10
2017-11-22T22:14:51.518Z,11.07
2017-11-22T22:17:28.352Z,10.00
2017-11-22T22:20:01.850Z,11.15
2017-11-22T22:22:36.172Z,8.80
2017-11-22T22:25:17.906Z,10.93
2017-11-22T22:27:55.007Z,11.20
2017-11-22T22:30:35.410Z,10.90
2017-11-22T22:33:13.810Z,10.65
2017-11-22T22:35:47.599Z,11.07
2017-11-22T22:38:19.910Z,12.00
2017-11-22T22:40:54.019Z,10.35
2017-11-22T22:43:31.171Z,11.30
2017-11-22T22:46:08.896Z,10.18
2017-11-22T22:48:46.678Z,9.95
2017-11-22T22:51:26.476Z,10.55
2017-11-22T22:54:04.960Z,10.10
2017-11-22T22:56:43.271Z,10.85
2017-11-22T22:59:22.967Z,8.57
2017-11-22T23:02:00.065Z,9.07
2017-11-22T23:04:45.121Z,9.95
2017-11-22T23:07:23.223Z,8.90
2017-11-22T23:10:00.667Z,10.10
2017-11-22T23:12:37.397Z,9.80
2017-11-22T23:15:14.449Z,8.75
2017-11-22T23:17:46.623Z,9.57
2017-11-22T23:20:24.701Z,9.05
2017-11-22T23:23:03.198Z,9.52
2017-11-22T23:25:42.984Z,9.43
2017-11-22T23:28:19.855Z,11.50
2017-11-22T23:30:58.033Z,7.68
2017-11-22T23:33:37.798Z,9.77
2017-11-22T23:36:08.965Z,8.60
2017-11-22T23:38:47.768Z,8.38
2017-11-22T23:41:25.981Z,8.43
2017-11-22T23:44:04.932Z,10.15
2017-11-22T23:46:43.392Z,9.63
2017-11-22T23:49:21.259Z,9.77
2017-11-22T23:51:58.961Z,9.07
2017-11-22T23:54:36.429Z,8.43
2017-11-22T23:57:13.314Z,9.05
2017-11-22T23:59:50.444Z,8.90
